Time;durP1;ratioP1;P1;durP2;ratioP2;P2;SDS_P1;SDS_P2;PMS_P1;PMS_P2;Temp;Humidity;BMP_temperature;BMP_pressure;BME280_temperature;BME280_humidity;BME280_pressure;Samples;Min_cycle;Max_cycle;Signal;HPM_P1;HPM_P2
2023/11/12 00:00:38;;;;;;;8.00;6.15;;;;;;;6.02;100.00;99586.84;5041275;28;20041;-74
2023/11/12 00:03:06;;;;;;;12.82;6.43;;;;;;;6.10;100.00;99595.28;5048686;28;20086;-73
2023/11/12 00:05:36;;;;;;;9.00;5.65;;;;;;;6.08;100.00;99580.50;5023123;28;20049;-75
2023/11/12 00:08:10;;;;;;;8.07;5.90;;;;;;;6.21;100.00;99607.97;5046280;28;20060;-75
2023/11/12 00:10:45;;;;;;;9.90;5.95;;;;;;;6.20;100.00;99585.22;5051139;28;20071;-74
2023/11/12 00:13:14;;;;;;;8.80;6.32;;;;;;;6.05;100.00;99597.22;5048595;28;20056;-75
2023/11/12 00:15:43;;;;;;;9.40;6.72;;;;;;;5.90;100.00;99606.59;5044505;28;20044;-76
2023/11/12 00:18:11;;;;;;;10.23;6.20;;;;;;;5.72;100.00;99595.94;5065035;28;20421;-74
2023/11/12 00:20:40;;;;;;;11.95;6.72;;;;;;;5.64;100.00;99606.75;5053494;28;20033;-75
2023/11/12 00:23:08;;;;;;;10.88;6.55;;;;;;;5.58;100.00;99601.75;5050491;28;20037;-74
2023/11/12 00:25:39;;;;;;;8.63;6.35;;;;;;;5.55;100.00;99601.84;5046981;28;20299;-75
2023/11/12 00:28:07;;;;;;;;;;;;;;;5.60;100.00;99600.78;5066182;28;20119;-75
2023/11/12 00:30:36;;;;;;;8.80;6.15;;;;;;;5.56;100.00;99585.19;5051789;28;19942;-73
2023/11/12 00:33:08;;;;;;;10.50;6.45;;;;;;;5.64;100.00;99591.00;5070938;28;20054;-74
2023/11/12 00:35:37;;;;;;;12.98;6.30;;;;;;;5.63;100.00;99599.78;5060529;28;20091;-74
2023/11/12 00:38:05;;;;;;;9.85;6.22;;;;;;;5.61;100.00;99599.00;5047513;28;20048;-77
2023/11/12 00:40:33;;;;;;;9.55;6.35;;;;;;;5.63;100.00;99590.16;5053332;28;20043;-75
2023/11/12 00:43:02;;;;;;;11.00;6.88;;;;;;;5.71;100.00;99584.56;5049281;28;20072;-75
2023/11/12 00:45:31;;;;;;;8.68;6.60;;;;;;;5.82;100.00;99587.66;5040372;28;20568;-74
2023/11/12 00:48:02;;;;;;;9.05;6.50;;;;;;;5.74;100.00;99579.19;5062394;28;20132;-74
2023/11/12 00:50:31;;;;;;;8.27;6.65;;;;;;;5.73;100.00;99590.63;5054441;28;20437;-75
2023/11/12 00:53:00;;;;;;;10.55;6.28;;;;;;;5.72;100.00;99588.91;5052114;28;20092;-73
2023/11/12 00:55:30;;;;;;;9.48;6.60;;;;;;;5.78;100.00;99587.81;5051062;28;20049;-75
2023/11/12 00:57:58;;;;;;;10.98;6.97;;;;;;;5.61;100.00;99570.97;5051558;28;20071;-74
2023/11/12 01:00:29;;;;;;;;;;;;;;;5.61;100.00;99594.59;5037988;28;20056;-74
2023/11/12 01:02:57;;;;;;;12.93;7.22;;;;;;;5.51;100.00;99592.41;5056797;28;20385;-75
2023/11/12 01:05:28;;;;;;;10.10;7.00;;;;;;;5.50;100.00;99588.06;5068938;28;20144;-73
2023/11/12 01:08:03;;;;;;;13.13;7.10;;;;;;;5.49;100.00;99589.84;5046376;28;20072;-75
2023/11/12 01:10:32;;;;;;;11.13;7.03;;;;;;;5.52;100.00;99583.59;5048288;28;20049;-74
2023/11/12 01:13:00;;;;;;;12.90;7.25;;;;;;;5.51;100.00;99587.16;5053075;28;20044;-74
2023/11/12 01:15:29;;;;;;;11.13;6.88;;;;;;;5.47;100.00;99588.19;5048698;28;20516;-75
2023/11/12 01:17:58;;;;;;;10.32;7.72;;;;;;;5.45;100.00;99577.75;5028801;28;20466;-75
2023/11/12 01:20:27;;;;;;;12.48;7.57;;;;;;;5.34;100.00;99556.31;5049682;28;20108;-73
2023/11/12 01:22:56;;;;;;;10.43;7.45;;;;;;;5.37;100.00;99564.03;5047087;28;20509;-73
2023/11/12 01:25:26;;;;;;;12.85;7.45;;;;;;;5.55;100.00;99580.84;5046233;28;20587;-75
2023/11/12 01:27:55;;;;;;;9.23;6.40;;;;;;;5.47;100.00;99540.91;5043429;28;20041;-77
2023/11/12 01:30:25;;;;;;;9.13;7.10;;;;;;;5.68;100.00;99574.19;5048103;28;20390;-73
2023/11/12 01:32:55;;;;;;;12.43;6.73;;;;;;;5.72;100.00;99567.03;5052795;28;20041;-74
2023/11/12 01:35:23;;;;;;;10.27;6.88;;;;;;;5.74;100.00;99566.06;5050578;28;20491;-75
2023/11/12 01:37:51;;;;;;;10.40;7.07;;;;;;;5.73;100.00;99564.34;5063068;28;20033;-74
2023/11/12 01:40:20;;;;;;;11.55;7.43;;;;;;;5.67;100.00;99559.34;5052286;28;20102;-74
2023/11/12 01:42:50;;;;;;;12.80;7.15;;;;;;;5.52;100.00;99549.44;5051395;28;20106;-74
2023/11/12 01:45:18;;;;;;;11.43;7.80;;;;;;;5.48;100.00;99561.88;5052684;28;20048;-75
2023/11/12 01:47:48;;;;;;;12.27;8.00;;;;;;;5.48;100.00;99568.88;5040485;28;20072;-74
2023/11/12 01:50:18;;;;;;;;;;;;;;;5.43;100.00;99570.81;5051562;28;20102;-74
2023/11/12 01:52:50;;;;;;;13.47;7.80;;;;;;;5.29;100.00;99545.13;5064289;28;19967;-76
2023/11/12 01:55:20;;;;;;;13.35;8.68;;;;;;;5.22;100.00;99552.38;5049304;28;20475;-75
2023/11/12 01:57:52;;;;;;;10.85;7.85;;;;;;;5.13;100.00;99549.25;5039696;28;20049;-74
2023/11/12 02:00:22;;;;;;;13.82;8.80;;;;;;;5.02;100.00;99556.69;5029602;28;20049;-75
2023/11/12 02:02:51;;;;;;;12.63;8.95;;;;;;;5.01;100.00;99560.22;5064546;28;20509;-74
2023/11/12 02:05:23;;;;;;;14.50;9.17;;;;;;;5.01;100.00;99563.69;5048927;28;20049;-73
2023/11/12 02:07:56;;;;;;;15.32;9.07;;;;;;;4.98;100.00;99561.19;5036349;28;20041;-74
2023/11/12 02:10:28;;;;;;;12.50;8.50;;;;;;;5.03;100.00;99564.50;5047892;28;20103;-74
2023/11/12 02:12:59;;;;;;;;;;;;;;;5.07;100.00;99565.22;5046884;28;20276;-74
2023/11/12 02:15:27;;;;;;;12.38;9.18;;;;;;;5.08;100.00;99569.56;5060482;28;19925;-74
2023/11/12 02:17:55;;;;;;;13.30;10.07;;;;;;;5.05;100.00;99559.16;5039234;28;20087;-77
2023/11/12 02:20:24;;;;;;;13.18;9.27;;;;;;;5.06;100.00;99576.63;5047529;28;20101;-75
2023/11/12 02:22:52;;;;;;;15.70;9.90;;;;;;;4.99;100.00;99568.16;5046595;28;20060;-73
2023/11/12 02:25:23;;;;;;;13.52;10.15;;;;;;;5.02;100.00;99570.66;5045324;28;20048;-74
2023/11/12 02:27:53;;;;;;;16.73;10.15;;;;;;;5.03;100.00;99569.75;5042669;28;20099;-74
2023/11/12 02:30:20;;;;;;;14.55;9.25;;;;;;;5.12;100.00;99561.50;5048633;28;20452;-74
2023/11/12 02:32:49;;;;;;;14.23;10.57;;;;;;;5.19;100.00;99568.25;5030079;28;20171;-74
2023/11/12 02:35:18;;;;;;;14.93;10.50;;;;;;;5.12;100.00;99551.00;5055936;28;20049;-75
2023/11/12 02:37:47;;;;;;;16.02;10.48;;;;;;;5.14;100.00;99554.44;5041933;28;20065;-74
2023/11/12 02:40:16;;;;;;;16.73;10.68;;;;;;;5.20;100.00;99577.81;5034408;28;20076;-74
2023/11/12 02:42:45;;;;;;;17.75;12.07;;;;;;;5.17;100.00;99575.31;5061257;28;20087;-75
2023/11/12 02:45:18;;;;;;;17.60;11.95;;;;;;;5.12;100.00;99569.38;5052597;28;20434;-75
2023/11/12 02:47:47;;;;;;;17.33;12.23;;;;;;;5.10;100.00;99565.97;5042997;28;20243;-74
2023/11/12 02:50:26;;;;;;;19.08;12.75;;;;;;;5.05;100.00;99562.66;5048458;28;20104;-75
2023/11/12 02:52:59;;;;;;;17.02;11.98;;;;;;;5.02;100.00;99554.91;5071449;28;20049;-73
2023/11/12 02:55:30;;;;;;;17.90;11.70;;;;;;;5.14;100.00;99566.72;5051138;28;20034;-74
2023/11/12 02:58:00;;;;;;;16.08;11.38;;;;;;;5.11;100.00;99564.19;5045086;28;20052;-76
2023/11/12 03:00:30;;;;;;;16.73;12.35;;;;;;;5.12;100.00;99560.66;5050881;28;20103;-74
2023/11/12 03:03:01;;;;;;;18.30;12.35;;;;;;;5.08;100.00;99565.16;5043055;28;20076;-74
2023/11/12 03:05:31;;;;;;;18.38;12.05;;;;;;;4.98;100.00;99550.69;5054474;28;20049;-75
2023/11/12 03:08:00;;;;;;;18.25;12.65;;;;;;;5.02;100.00;99552.28;5062136;28;20052;-74
2023/11/12 03:10:29;;;;;;;18.20;12.32;;;;;;;4.93;100.00;99531.63;5050941;28;20053;-74
2023/11/12 03:13:02;;;;;;;18.45;13.20;;;;;;;4.96;100.00;99526.28;5035602;28;20516;-75
2023/11/12 03:15:33;;;;;;;16.15;12.07;;;;;;;5.11;100.00;99537.94;5048415;28;20420;-74
2023/11/12 03:18:01;;;;;;;15.73;11.80;;;;;;;5.25;100.00;99531.25;5029671;28;20041;-74
2023/11/12 03:20:29;;;;;;;15.43;11.57;;;;;;;5.29;100.00;99514.47;5047498;28;20048;-74
2023/11/12 03:22:57;;;;;;;15.00;11.25;;;;;;;5.36;100.00;99516.84;5050872;28;20052;-73
2023/11/12 03:25:25;;;;;;;15.80;10.88;;;;;;;5.41;100.00;99512.28;5033373;28;20071;-73
2023/11/12 03:27:54;;;;;;;14.63;10.68;;;;;;;5.36;100.00;99496.69;5043397;28;20140;-74
2023/11/12 03:30:23;;;;;;;17.42;11.50;;;;;;;5.31;100.00;99503.06;5050145;28;20501;-75
2023/11/12 03:32:52;;;;;;;15.60;11.13;;;;;;;5.19;100.00;99491.28;5056796;28;20044;-74
2023/11/12 03:35:21;;;;;;;15.77;10.85;;;;;;;5.25;100.00;99483.16;5052017;28;20129;-75
2023/11/12 03:37:50;;;;;;;14.65;11.20;;;;;;;5.34;100.00;99495.06;5045245;28;20498;-74
2023/11/12 03:40:19;;;;;;;15.13;11.38;;;;;;;5.30;100.00;99489.06;5051499;28;20607;-74
2023/11/12 03:42:48;;;;;;;16.70;10.43;;;;;;;5.29;100.00;99490.84;5055841;28;20123;-75
2023/11/12 03:45:19;;;;;;;16.27;11.32;;;;;;;5.32;100.00;99496.91;5056696;28;20060;-74
2023/11/12 03:47:50;;;;;;;14.52;10.57;;;;;;;5.35;100.00;99488.91;5040316;28;20068;-76
2023/11/12 03:50:19;;;;;;;15.02;10.82;;;;;;;5.42;100.00;99485.09;5030212;28;20053;-74
2023/11/12 03:52:47;;;;;;;16.00;10.50;;;;;;;5.52;100.00;99494.31;5031985;28;20040;-75
2023/11/12 03:55:16;;;;;;;14.43;10.27;;;;;;;5.54;100.00;99493.31;5049807;28;20054;-74
2023/11/12 03:57:45;;;;;;;16.75;11.30;;;;;;;5.62;100.00;99487.78;5055715;28;20066;-75
2023/11/12 04:00:17;;;;;;;15.95;10.20;;;;;;;5.63;100.00;99490.34;5049621;28;20128;-74
2023/11/12 04:02:45;;;;;;;12.70;9.68;;;;;;;5.68;100.00;99482.25;5052372;28;20124;-74
2023/11/12 04:05:15;;;;;;;11.93;9.68;;;;;;;5.76;100.00;99484.56;5046754;28;20103;-75
2023/11/12 04:07:45;;;;;;;17.50;9.68;;;;;;;5.87;100.00;99488.44;5043060;28;20053;-75
2023/11/12 04:10:13;;;;;;;17.45;10.05;;;;;;;5.97;100.00;99484.56;5049601;28;20056;-75
2023/11/12 04:12:41;;;;;;;15.80;9.77;;;;;;;6.04;100.00;99484.28;5042013;28;20332;-74
2023/11/12 04:15:09;;;;;;;19.25;10.35;;;;;;;6.01;100.00;99479.16;5048474;28;20054;-74
2023/11/12 04:17:37;;;;;;;13.25;10.10;;;;;;;5.88;100.00;99476.16;5062168;28;20965;-73
2023/11/12 04:20:08;;;;;;;14.02;9.73;;;;;;;5.59;100.00;99446.72;5050095;28;20073;-74
2023/11/12 04:22:41;;;;;;;17.17;10.93;;;;;;;5.74;100.00;99479.38;5058152;28;20573;-75
2023/11/12 04:25:12;;;;;;;14.35;10.18;;;;;;;5.69;100.00;99483.97;5049449;28;20541;-74
2023/11/12 04:27:42;;;;;;;15.40;11.00;;;;;;;5.60;100.00;99484.34;5040485;28;20075;-74
2023/11/12 04:30:11;;;;;;;14.70;9.95;;;;;;;5.59;100.00;99480.00;5045342;28;20045;-74
2023/11/12 04:32:40;;;;;;;14.95;10.27;;;;;;;5.71;100.00;99484.75;5054985;28;20045;-74
2023/11/12 04:35:10;;;;;;;13.82;10.63;;;;;;;5.79;100.00;99489.69;5048508;28;20037;-75
2023/11/12 04:37:43;;;;;;;16.23;9.77;;;;;;;5.73;100.00;99488.19;5044718;28;20095;-75
2023/11/12 04:40:16;;;;;;;16.67;11.40;;;;;;;5.67;100.00;99482.34;5066422;28;20045;-76
2023/11/12 04:42:44;;;;;;;17.48;11.65;;;;;;;5.59;100.00;99483.50;5049335;28;20421;-76
2023/11/12 04:45:13;;;;;;;18.92;11.63;;;;;;;5.51;100.00;99482.94;5048200;28;20122;-75
2023/11/12 04:47:43;;;;;;;16.40;12.27;;;;;;;5.48;100.00;99490.97;5043184;28;20049;-75
2023/11/12 04:50:12;;;;;;;15.75;9.95;;;;;;;5.43;100.00;99479.78;5046812;28;20048;-75
2023/11/12 04:52:48;;;;;;;19.27;12.07;;;;;;;5.45;100.00;99490.22;5050656;28;20490;-76
2023/11/12 04:55:17;;;;;;;18.15;12.40;;;;;;;5.42;100.00;99475.44;5050014;28;20048;-75
2023/11/12 04:57:45;;;;;;;20.27;12.25;;;;;;;5.43;100.00;99481.56;5039497;28;20052;-74
2023/11/12 05:00:14;;;;;;;20.23;12.48;;;;;;;5.41;100.00;99473.75;5032311;28;20136;-75
2023/11/12 05:02:44;;;;;;;18.70;11.88;;;;;;;5.40;100.00;99479.91;5046862;28;20060;-73
2023/11/12 05:05:15;;;;;;;20.83;12.55;;;;;;;5.39;100.00;99469.47;5053699;28;20048;-75
2023/11/12 05:07:43;;;;;;;19.23;13.00;;;;;;;5.35;100.00;99463.50;5045047;28;20122;-74
2023/11/12 05:10:13;;;;;;;18.25;12.35;;;;;;;5.37;100.00;99459.03;5049853;28;20102;-74
2023/11/12 05:12:45;;;;;;;19.95;13.25;;;;;;;5.38;100.00;99462.50;5056737;28;20045;-75
2023/11/12 05:15:14;;;;;;;22.13;12.48;;;;;;;5.41;100.00;99465.00;5026576;28;20053;-74
2023/11/12 05:17:43;;;;;;;17.98;12.10;;;;;;;5.39;100.00;99461.59;5056643;28;20041;-74
2023/11/12 05:20:13;;;;;;;17.20;12.25;;;;;;;5.39;100.00;99459.81;5065419;28;20051;-75
2023/11/12 05:22:43;;;;;;;18.80;12.63;;;;;;;5.38;100.00;99458.09;5054089;28;20057;-74
2023/11/12 05:25:14;;;;;;;17.92;12.40;;;;;;;5.45;100.00;99466.59;5047666;28;20064;-75
2023/11/12 05:27:42;;;;;;;18.17;12.95;;;;;;;5.46;100.00;99465.69;5046634;28;20052;-76
2023/11/12 05:30:12;;;;;;;20.75;12.93;;;;;;;5.47;100.00;99462.16;5040729;28;20126;-75
2023/11/12 05:32:42;;;;;;;21.73;12.95;;;;;;;5.36;100.00;99444.19;5047665;28;20056;-73
2023/11/12 05:35:10;;;;;;;20.15;14.10;;;;;;;5.46;100.00;99470.94;5050791;28;20113;-74
2023/11/12 05:37:38;;;;;;;18.58;12.52;;;;;;;5.33;100.00;99438.22;5045902;28;20049;-75
2023/11/12 05:40:08;;;;;;;19.40;13.10;;;;;;;5.35;100.00;99439.03;5060631;28;20041;-74
2023/11/12 05:42:38;;;;;;;19.75;13.05;;;;;;;5.51;100.00;99471.63;5052649;28;20060;-74
2023/11/12 05:45:07;;;;;;;19.57;13.07;;;;;;;5.51;100.00;99482.13;5061541;28;20451;-74
2023/11/12 05:47:36;;;;;;;20.17;13.25;;;;;;;5.49;100.00;99473.44;5042105;28;20041;-75
2023/11/12 05:50:07;;;;;;;23.25;12.85;;;;;;;5.57;100.00;99476.59;5046268;28;20505;-75
2023/11/12 05:52:37;;;;;;;19.60;12.15;;;;;;;5.54;100.00;99477.56;5051288;28;20435;-73
2023/11/12 05:55:07;;;;;;;18.98;12.00;;;;;;;5.56;100.00;99472.25;5052927;28;20127;-74
2023/11/12 05:57:35;;;;;;;19.92;13.25;;;;;;;5.45;100.00;99458.72;5033571;28;20131;-74
2023/11/12 06:00:10;;;;;;;21.33;12.02;;;;;;;5.58;100.00;99488.81;5044588;28;20056;-74
2023/11/12 06:02:39;;;;;;;19.50;12.65;;;;;;;5.62;100.00;99488.63;5060937;28;20563;-74
2023/11/12 06:05:09;;;;;;;17.15;12.00;;;;;;;5.65;100.00;99498.16;5058317;28;20483;-75
2023/11/12 06:07:39;;;;;;;18.23;12.80;;;;;;;5.68;100.00;99489.28;5052716;28;20232;-75
2023/11/12 06:10:08;;;;;;;17.48;12.50;;;;;;;5.69;100.00;99498.88;5058248;28;20032;-75
2023/11/12 06:12:36;;;;;;;20.63;12.63;;;;;;;5.64;100.00;99505.19;5069416;28;20070;-75
2023/11/12 06:15:13;;;;;;;19.25;12.32;;;;;;;5.69;100.00;99501.50;5064318;28;20041;-74
2023/11/12 06:17:42;;;;;;;16.70;11.77;;;;;;;5.67;100.00;99506.81;5061355;28;20564;-74
2023/11/12 06:20:13;;;;;;;18.60;12.18;;;;;;;5.63;100.00;99481.59;5054657;28;20058;-75
2023/11/12 06:22:42;;;;;;;15.98;10.73;;;;;;;5.69;100.00;99494.47;5062074;28;20067;-75
2023/11/12 06:25:12;;;;;;;15.73;10.82;;;;;;;5.66;100.00;99499.88;5063302;28;20056;-76
2023/11/12 06:27:41;;;;;;;15.82;11.00;;;;;;;5.63;100.00;99497.38;5061922;28;20072;-76
2023/11/12 06:30:10;;;;;;;15.18;10.77;;;;;;;5.66;100.00;99505.13;5047134;28;20052;-75
2023/11/12 06:32:39;;;;;;;17.60;11.00;;;;;;;5.68;100.00;99498.00;5053023;28;20091;-76
2023/11/12 06:35:08;;;;;;;18.30;12.13;;;;;;;5.72;100.00;99509.25;5048882;28;20490;-76
2023/11/12 06:37:37;;;;;;;16.48;11.40;;;;;;;5.68;100.00;99513.78;5051518;28;20068;-75
2023/11/12 06:40:06;;;;;;;17.05;11.63;;;;;;;5.66;100.00;99512.16;5039118;28;20488;-75
2023/11/12 06:42:35;;;;;;;20.98;12.90;;;;;;;5.67;100.00;99514.69;5067998;28;20049;-75
2023/11/12 06:45:04;;;;;;;19.83;12.77;;;;;;;5.66;100.00;99509.53;5056523;28;20037;-76
2023/11/12 06:47:32;;;;;;;17.25;11.35;;;;;;;5.40;100.00;99479.91;5051535;28;20045;-75
2023/11/12 06:50:04;;;;;;;21.08;12.25;;;;;;;5.65;100.00;99524.44;5057656;28;20321;-74
2023/11/12 06:52:33;;;;;;;18.48;12.95;;;;;;;5.65;100.00;99524.44;5049923;28;20044;-75
2023/11/12 06:55:03;;;;;;;20.65;13.02;;;;;;;5.71;100.00;99520.69;5031549;28;20125;-75
2023/11/12 06:57:31;;;;;;;22.77;13.85;;;;;;;5.80;100.00;99528.19;5048223;28;20049;-74
2023/11/12 07:00:05;;;;;;;18.33;12.95;;;;;;;5.88;100.00;99540.13;5024632;28;20044;-74
2023/11/12 07:02:34;;;;;;;18.45;12.68;;;;;;;5.91;100.00;99547.88;5049093;28;20045;-73
2023/11/12 07:05:07;;;;;;;18.58;12.75;;;;;;;5.97;100.00;99545.00;5066365;28;20099;-75
2023/11/12 07:07:35;;;;;;;21.15;13.43;;;;;;;5.99;100.00;99552.78;5041408;28;20109;-75
2023/11/12 07:10:05;;;;;;;23.25;12.93;;;;;;;5.95;100.00;99569.63;5041853;28;20049;-75
2023/11/12 07:12:33;;;;;;;24.60;14.32;;;;;;;5.79;100.00;99558.88;5054732;28;20052;-75
2023/11/12 07:15:03;;;;;;;22.95;13.65;;;;;;;5.78;100.00;99567.66;5047025;28;20052;-73
2023/11/12 07:17:36;;;;;;;18.27;12.20;;;;;;;5.77;100.00;99579.09;5045362;28;20116;-75
2023/11/12 07:20:06;;;;;;;19.98;13.38;;;;;;;5.77;100.00;99584.34;5059259;28;20052;-75
2023/11/12 07:22:36;;;;;;;23.90;14.63;;;;;;;5.77;100.00;99579.09;5055131;28;20041;-74
2023/11/12 07:25:05;;;;;;;21.13;14.48;;;;;;;5.77;100.00;99581.72;5076662;28;20044;-73
2023/11/12 07:27:33;;;;;;;24.48;14.90;;;;;;;5.69;100.00;99570.63;5059889;28;20078;-76
2023/11/12 07:30:05;;;;;;;25.35;13.77;;;;;;;5.81;100.00;99585.06;5057540;28;20096;-75
2023/11/12 07:32:33;;;;;;;18.10;13.27;;;;;;;5.87;100.00;99588.28;5067473;28;20037;-74
2023/11/12 07:35:01;;;;;;;19.77;12.35;;;;;;;5.86;100.00;99583.09;5061605;28;20045;-74
2023/11/12 07:37:31;;;;;;;21.20;12.65;;;;;;;5.92;100.00;99581.13;5033837;28;20157;-74
2023/11/12 07:40:03;;;;;;;18.65;11.98;;;;;;;6.06;100.00;99587.56;5041831;28;20048;-74
2023/11/12 07:42:33;;;;;;;17.15;11.02;;;;;;;6.07;100.00;99576.16;5057648;28;20060;-74
2023/11/12 07:45:04;;;;;;;19.45;12.30;;;;;;;6.09;100.00;99584.81;5052965;28;20049;-73
2023/11/12 07:47:40;;;;;;;20.90;12.43;;;;;;;6.15;100.00;99602.94;5045584;28;20052;-74
2023/11/12 07:50:09;;;;;;;22.38;12.57;;;;;;;6.11;100.00;99602.25;5036735;28;20068;-74
2023/11/12 07:52:41;;;;;;;19.10;12.70;;;;;;;6.04;100.00;99616.56;5051883;28;20060;-74
2023/11/12 07:55:11;;;;;;;18.60;11.93;;;;;;;5.87;100.00;99601.44;5047628;28;20107;-74
2023/11/12 07:57:42;;;;;;;17.77;10.75;;;;;;;5.84;100.00;99593.66;5032151;28;20064;-75
2023/11/12 08:00:13;;;;;;;17.70;11.60;;;;;;;5.87;100.00;99604.06;5038272;28;20049;-75
2023/11/12 08:02:42;;;;;;;20.30;12.80;;;;;;;5.96;100.00;99616.88;5067609;28;20049;-75
2023/11/12 08:05:12;;;;;;;19.15;12.68;;;;;;;5.97;100.00;99609.84;5050711;28;20045;-75
2023/11/12 08:07:42;;;;;;;20.83;13.32;;;;;;;6.02;100.00;99615.75;5045281;28;20060;-75
2023/11/12 08:10:11;;;;;;;;;;;;;;;6.11;100.00;99617.16;5037945;28;20049;-73
2023/11/12 08:12:43;;;;;;;18.55;12.75;;;;;;;6.03;100.00;99600.84;5053373;28;19929;-74
2023/11/12 08:15:13;;;;;;;23.83;13.32;;;;;;;6.09;100.00;99624.25;5049118;28;20441;-75
2023/11/12 08:17:42;;;;;;;21.58;13.38;;;;;;;6.07;100.00;99613.81;5037155;28;20068;-76
2023/11/12 08:20:11;;;;;;;21.00;13.02;;;;;;;6.13;100.00;99631.97;5057556;28;20048;-75
2023/11/12 08:22:40;;;;;;;21.17;12.85;;;;;;;6.10;100.00;99628.59;5046184;28;20045;-76
2023/11/12 08:25:10;;;;;;;;;;;;;;;6.12;100.00;99632.03;5047697;28;20055;-73
2023/11/12 08:27:39;;;;;;;21.13;13.10;;;;;;;6.12;100.00;99626.75;5045365;28;20351;-75
2023/11/12 08:30:08;;;;;;;19.67;12.43;;;;;;;6.14;100.00;99623.13;5042619;28;20049;-74
2023/11/12 08:32:37;;;;;;;21.08;12.98;;;;;;;6.19;100.00;99629.06;5053751;28;20045;-74
2023/11/12 08:35:06;;;;;;;21.08;12.95;;;;;;;6.19;100.00;99625.56;5054244;28;20057;-74
2023/11/12 08:37:35;;;;;;;21.20;13.73;;;;;;;6.12;100.00;99618.88;5034167;28;20060;-74
2023/11/12 08:40:11;;;;;;;23.17;13.70;;;;;;;6.12;100.00;99621.50;5029169;28;20053;-74
2023/11/12 08:42:40;;;;;;;21.38;13.23;;;;;;;6.16;100.00;99634.44;5051989;28;20537;-76
2023/11/12 08:45:09;;;;;;;24.08;14.15;;;;;;;6.19;100.00;99628.19;5053929;28;20053;-76
2023/11/12 08:47:40;;;;;;;21.42;13.63;;;;;;;6.19;100.00;99630.84;5062062;28;20300;-74
2023/11/12 08:50:12;;;;;;;19.77;13.15;;;;;;;6.21;100.00;99626.38;5037883;28;20458;-77
2023/11/12 08:52:40;;;;;;;20.27;12.02;;;;;;;6.25;100.00;99636.72;5045143;28;20049;-76
2023/11/12 08:55:11;;;;;;;19.15;11.60;;;;;;;6.27;100.00;99623.50;5038827;28;20048;-75
2023/11/12 08:57:42;;;;;;;18.70;11.32;;;;;;;6.35;100.00;99629.28;5051663;28;20045;-76
2023/11/12 09:00:14;;;;;;;21.75;13.00;;;;;;;6.50;100.00;99630.41;5048332;28;20134;-75
2023/11/12 09:02:44;;;;;;;16.70;10.93;;;;;;;6.58;100.00;99625.69;5051202;28;20051;-74
2023/11/12 09:05:13;;;;;;;14.93;9.70;;;;;;;6.64;100.00;99622.78;5051767;28;20069;-75
2023/11/12 09:07:41;;;;;;;16.35;10.48;;;;;;;6.74;100.00;99637.25;5054696;28;20060;-73
2023/11/12 09:10:15;;;;;;;17.67;10.32;;;;;;;6.73;100.00;99638.19;5040198;28;20494;-74
2023/11/12 09:12:44;;;;;;;16.05;10.27;;;;;;;6.69;100.00;99641.84;5053006;28;20045;-73
2023/11/12 09:15:12;;;;;;;16.10;10.65;;;;;;;6.71;100.00;99636.53;5033730;28;20045;-73
2023/11/12 09:17:43;;;;;;;17.33;10.55;;;;;;;6.82;100.00;99632.50;5050476;28;20045;-73
2023/11/12 09:20:15;;;;;;;17.40;12.00;;;;;;;6.91;100.00;99639.16;5045973;28;20051;-73
2023/11/12 09:22:44;;;;;;;14.63;10.75;;;;;;;6.92;100.00;99643.50;5057342;28;20056;-73
2023/11/12 09:25:14;;;;;;;17.42;10.45;;;;;;;6.89;100.00;99641.84;5063216;28;20114;-75
2023/11/12 09:27:42;;;;;;;17.13;11.45;;;;;;;6.97;100.00;99652.88;5054741;28;20057;-74
2023/11/12 09:30:11;;;;;;;19.60;11.40;;;;;;;7.01;100.00;99630.78;5059861;28;20131;-74
2023/11/12 09:32:41;;;;;;;19.88;11.68;;;;;;;7.21;100.00;99634.31;5071416;28;20045;-75
2023/11/12 09:35:12;;;;;;;20.30;12.30;;;;;;;7.12;100.00;99637.34;5056136;28;20155;-73
2023/11/12 09:37:41;;;;;;;18.20;13.15;;;;;;;6.88;100.00;99642.78;5069022;28;20053;-74
2023/11/12 09:40:12;;;;;;;19.80;12.85;;;;;;;6.78;100.00;99645.84;5050883;28;20056;-73
2023/11/12 09:42:49;;;;;;;24.27;14.38;;;;;;;6.68;100.00;99642.78;5056716;28;20037;-73
2023/11/12 09:45:20;;;;;;;21.70;14.70;;;;;;;6.70;100.00;99646.19;5067836;28;20424;-73
2023/11/12 09:48:07;;;;;;;26.95;16.40;;;;;;;6.71;100.00;99639.16;5051090;28;20099;-74
2023/11/12 09:50:39;;;;;;;26.58;15.57;;;;;;;6.72;100.00;99641.72;5058303;28;20126;-75
2023/11/12 09:53:12;;;;;;;25.50;16.02;;;;;;;6.86;100.00;99647.25;5066388;28;20426;-73
2023/11/12 09:55:40;;;;;;;22.73;14.15;;;;;;;6.92;100.00;99641.72;5062176;28;20041;-73
2023/11/12 09:58:13;;;;;;;22.92;15.52;;;;;;;6.98;100.00;99633.53;5055790;28;20045;-75
2023/11/12 10:00:46;;;;;;;22.30;14.60;;;;;;;7.01;100.00;99629.91;5058747;28;20072;-73
2023/11/12 10:03:14;;;;;;;21.90;14.00;;;;;;;7.05;100.00;99631.50;5055824;28;20045;-73
2023/11/12 10:05:43;;;;;;;24.13;13.45;;;;;;;7.19;100.00;99628.25;5063018;28;20143;-75
2023/11/12 10:08:12;;;;;;;24.00;13.80;;;;;;;7.30;100.00;99618.94;5035060;28;20068;-73
2023/11/12 10:10:41;;;;;;;21.73;13.30;;;;;;;7.48;100.00;99619.00;5047834;28;20052;-74
2023/11/12 10:13:12;;;;;;;23.73;13.38;;;;;;;7.58;100.00;99613.22;5058537;28;20711;-74
2023/11/12 10:15:40;;;;;;;20.67;14.00;;;;;;;7.82;100.00;99608.56;5044132;28;20055;-74
2023/11/12 10:18:09;;;;;;;19.90;13.48;;;;;;;8.07;100.00;99611.72;5047304;28;20047;-73
2023/11/12 10:20:39;;;;;;;21.05;13.07;;;;;;;8.21;100.00;99620.72;5055044;28;20076;-74
2023/11/12 10:23:20;;;;;;;21.02;14.18;;;;;;;8.05;100.00;99607.44;5048718;28;20171;-74
2023/11/12 10:25:51;;;;;;;21.30;14.27;;;;;;;7.80;100.00;99618.34;5058761;28;20106;-74
2023/11/12 10:28:22;;;;;;;28.98;14.90;;;;;;;7.53;100.00;99606.47;5065067;28;20049;-74
2023/11/12 10:30:55;;;;;;;23.55;15.43;;;;;;;7.39;100.00;99617.66;5041410;28;20260;-73
2023/11/12 10:33:24;;;;;;;23.70;15.38;;;;;;;7.24;100.00;99626.28;5052018;28;20540;-73
2023/11/12 10:36:08;;;;;;;25.88;16.15;;;;;;;7.11;100.00;99628.56;5036073;28;20053;-73
2023/11/12 10:38:48;;;;;;;24.77;15.10;;;;;;;7.11;100.00;99625.94;5054388;28;20140;-74
2023/11/12 10:41:19;;;;;;;22.15;14.82;;;;;;;7.08;100.00;99623.47;5046061;28;20134;-73
2023/11/12 10:43:58;;;;;;;24.38;15.60;;;;;;;7.10;100.00;99618.97;5036289;28;20034;-73
2023/11/12 10:46:43;;;;;;;25.95;15.70;;;;;;;7.22;100.00;99628.97;5049339;28;20072;-73
2023/11/12 10:49:14;;;;;;;26.20;14.80;;;;;;;7.22;100.00;99615.81;5052842;28;20051;-75
2023/11/12 10:51:42;;;;;;;23.38;15.43;;;;;;;7.24;100.00;99606.03;5039393;28;20061;-74
2023/11/12 10:54:13;;;;;;;27.52;15.52;;;;;;;7.37;100.00;99619.50;5047567;28;20050;-73
2023/11/12 10:56:42;;;;;;;24.60;14.88;;;;;;;7.42;100.00;99611.38;5049237;28;20509;-73
2023/11/12 10:59:15;;;;;;;24.35;14.80;;;;;;;7.47;100.00;99604.97;5066676;28;20047;-74
2023/11/12 11:01:46;;;;;;;22.50;14.63;;;;;;;7.60;100.00;99607.88;5043931;28;20048;-73
2023/11/12 11:04:15;;;;;;;22.60;13.90;;;;;;;7.74;100.00;99597.53;5050183;28;20056;-73
2023/11/12 11:06:44;;;;;;;24.92;13.95;;;;;;;7.91;100.00;99589.66;5053420;28;20045;-74
2023/11/12 11:09:14;;;;;;;22.77;14.07;;;;;;;8.09;100.00;99599.31;5050536;28;20586;-72
2023/11/12 11:11:42;;;;;;;23.35;15.13;;;;;;;8.08;100.00;99602.88;5044772;28;20099;-75
2023/11/12 11:14:27;;;;;;;23.48;14.45;;;;;;;7.90;100.00;99606.41;5050830;28;20486;-73
2023/11/12 11:16:57;;;;;;;23.00;14.10;;;;;;;7.73;100.00;99583.50;5054514;28;20099;-73
2023/11/12 11:19:57;;;;;;;16.33;10.75;;;;;;;7.88;100.00;99594.22;5049791;28;20033;-73
2023/11/12 11:22:32;;;;;;;22.55;13.38;;;;;;;7.95;100.00;99596.50;5041284;28;20605;-74
2023/11/12 11:25:21;;;;;;;21.67;13.25;;;;;;;8.14;100.00;99593.81;5050729;28;20049;-74
2023/11/12 11:27:51;;;;;;;21.25;13.35;;;;;;;8.14;100.00;99578.00;5048188;28;20103;-75
2023/11/12 11:30:23;;;;;;;20.98;12.75;;;;;;;8.03;100.00;99546.88;5044242;28;20093;-72
2023/11/12 11:32:57;;;;;;;22.60;14.18;;;;;;;8.30;100.00;99578.94;5059898;28;20041;-73
2023/11/12 11:35:26;;;;;;;20.67;13.52;;;;;;;8.30;100.00;99580.72;5050999;28;20045;-73